Terminal Aerodrome Forecast
Issued by NWS

Home | Current Version | Previous Version | Text Only | Print | Product List | Glossary On
Versions: 1 2 3 4 5 6 7 8 9 10 11 12 13 14 15 16 17
733
FTUS45 KREV 192043 AAC
TAFMMH
TAF AMD
KMMH 192043Z 1921/2018 VRB06KT P6SM -SHSN SCT025 BKN040
      WS020/23030KT
     FM192300 25010G18KT 3SM -SHSN SCT012 BKN022
     FM200200 25011G20KT P6SM VCSH SCT025 OVC080
     FM201000 16008KT 4SM -SN SCT015 OVC025=

USA.gov is the U.S. government's official web portal to all federal, state and local government web resources and services.